Terminal Aerodrome Forecast
Issued by NWS

Current Version | Previous Version | Text Only | Print | Product List | Glossary On
Versions: 1 2 3 4 5 6 7 8 9 10 11 12 13 14 15 16 17 18 19
000
FTUS41 KGYX 242320
TAFPSM
TAF
KPSM 242320Z 2500/2524 24007KT P6SM SCT100 BKN250
     FM250200 23005KT P6SM SCT100 BKN250
     FM251300 24007KT P6SM SCT060 BKN100
     FM251700 20007KT P6SM -SHRA BKN050 OVC080=

USA.gov is the U.S. government's official web portal to all federal, state and local government web resources and services.